createdAt,value
2023-01-29T00:00:22.434Z,16.20
2023-01-29T00:02:49.357Z,15.35
2023-01-29T00:05:27.562Z,15.45
2023-01-29T00:07:56.396Z,15.40
2023-01-29T00:10:24.997Z,16.10
2023-01-29T00:12:51.971Z,16.02
2023-01-29T00:15:19.055Z,16.15
2023-01-29T00:17:45.820Z,15.88
2023-01-29T00:20:13.065Z,15.80
2023-01-29T00:22:39.869Z,16.10
2023-01-29T00:25:07.351Z,15.68
2023-01-29T00:27:34.253Z,16.02
2023-01-29T00:30:09.286Z,17.08
2023-01-29T00:32:36.249Z,16.20
2023-01-29T00:35:03.528Z,15.73
2023-01-29T00:37:30.660Z,16.67
2023-01-29T00:39:57.818Z,17.10
2023-01-29T00:42:43.948Z,17.38
2023-01-29T00:45:11.981Z,17.42
2023-01-29T00:47:38.851Z,17.73
2023-01-29T00:50:08.493Z,17.38
2023-01-29T00:52:36.738Z,16.88
2023-01-29T00:55:05.862Z,16.85
2023-01-29T00:57:35.069Z,17.23
2023-01-29T01:00:03.607Z,17.38
2023-01-29T01:02:49.146Z,17.50
2023-01-29T01:05:20.231Z,17.00
2023-01-29T01:07:49.826Z,16.75
2023-01-29T01:10:22.961Z,18.15
2023-01-29T01:12:53.604Z,16.88
2023-01-29T01:15:22.255Z,16.80
2023-01-29T01:17:55.808Z,17.33
2023-01-29T01:20:24.510Z,17.00
2023-01-29T01:22:51.738Z,17.13
2023-01-29T01:25:18.797Z,17.88
2023-01-29T01:27:45.658Z,17.13
2023-01-29T01:30:15.804Z,17.05
2023-01-29T01:32:43.164Z,16.70
2023-01-29T01:35:11.509Z,18.23
2023-01-29T01:37:38.722Z,17.77
2023-01-29T01:40:12.760Z,17.38
2023-01-29T01:42:40.249Z,17.27
2023-01-29T01:45:18.723Z,16.95
2023-01-29T01:47:49.139Z,17.17
2023-01-29T01:50:22.051Z,17.37
2023-01-29T01:52:55.222Z,16.95
2023-01-29T01:55:26.296Z,17.70
2023-01-29T01:58:03.016Z,17.52
2023-01-29T02:00:29.849Z,17.08
2023-01-29T02:03:14.961Z,17.17
2023-01-29T02:06:00.796Z,17.90
2023-01-29T02:08:57.818Z,17.80
2023-01-29T02:11:25.203Z,17.08
2023-01-29T02:13:53.603Z,17.57
2023-01-29T02:16:25.813Z,17.42
2023-01-29T02:18:53.260Z,17.35
2023-01-29T02:21:41.820Z,18.42
2023-01-29T02:25:09.998Z,17.73
2023-01-29T02:28:06.578Z,19.05
2023-01-29T02:30:51.900Z,18.58
2023-01-29T02:33:43.631Z,19.25
2023-01-29T02:36:25.780Z,19.55
2023-01-29T02:39:12.259Z,18.47
2023-01-29T02:42:11.581Z,18.67
2023-01-29T02:44:43.863Z,19.27
2023-01-29T02:47:48.162Z,19.73
2023-01-29T02:50:26.256Z,19.02
2023-01-29T02:53:00.266Z,19.35
2023-01-29T02:55:42.410Z,19.27
2023-01-29T02:58:20.502Z,19.23
2023-01-29T03:00:49.185Z,20.00
2023-01-29T03:03:25.197Z,18.87
2023-01-29T03:06:20.673Z,18.80
2023-01-29T03:08:57.948Z,19.33
2023-01-29T03:11:30.017Z,19.67
2023-01-29T03:14:03.154Z,18.80
2023-01-29T03:16:42.565Z,19.73
2023-01-29T03:19:16.294Z,19.92
2023-01-29T03:22:00.038Z,19.65
2023-01-29T03:25:12.356Z,19.13
2023-01-29T03:28:15.663Z,19.90
2023-01-29T03:31:18.537Z,20.23
2023-01-29T03:33:54.881Z,19.60
2023-01-29T03:36:39.707Z,19.70
2023-01-29T03:39:09.049Z,20.20
2023-01-29T03:41:53.257Z,19.10
2023-01-29T03:44:37.174Z,19.98
2023-01-29T03:47:13.813Z,19.50
2023-01-29T03:49:53.807Z,19.63
2023-01-29T03:52:25.220Z,19.92
2023-01-29T03:55:10.761Z,19.55
2023-01-29T03:57:45.577Z,19.77
2023-01-29T04:00:27.843Z,19.15
2023-01-29T04:03:23.119Z,18.90
2023-01-29T04:06:14.747Z,19.77
2023-01-29T04:09:03.213Z,19.63
2023-01-29T04:11:34.032Z,20.00
2023-01-29T04:14:01.301Z,19.33
2023-01-29T04:16:36.708Z,19.67
2023-01-29T04:19:20.563Z,20.05
2023-01-29T04:21:50.549Z,19.75
2023-01-29T04:24:17.705Z,19.55
2023-01-29T04:27:03.542Z,20.20
2023-01-29T04:29:51.998Z,19.52
2023-01-29T04:32:28.255Z,20.33
2023-01-29T04:35:17.788Z,20.38
2023-01-29T04:37:56.939Z,19.77
2023-01-29T04:40:33.654Z,20.17
2023-01-29T04:43:08.048Z,19.77
2023-01-29T04:45:50.152Z,20.15
2023-01-29T04:48:25.648Z,20.15
2023-01-29T04:51:16.649Z,19.27
2023-01-29T04:53:55.779Z,19.63
2023-01-29T04:56:47.929Z,19.17
2023-01-29T04:59:20.897Z,18.75
2023-01-29T05:01:48.916Z,19.13
2023-01-29T05:04:19.655Z,19.50
2023-01-29T05:06:47.335Z,19.13
2023-01-29T05:09:16.406Z,19.58
2023-01-29T05:11:47.722Z,20.08
2023-01-29T05:14:17.402Z,19.05
2023-01-29T05:16:51.241Z,19.17
2023-01-29T05:19:18.092Z,19.40
2023-01-29T05:21:47.889Z,19.42
2023-01-29T05:24:16.551Z,19.17
2023-01-29T05:27:03.740Z,19.65
2023-01-29T05:29:30.545Z,19.63
2023-01-29T05:31:57.406Z,19.98
2023-01-29T05:34:24.204Z,19.45
2023-01-29T05:36:51.121Z,19.92
2023-01-29T05:39:18.070Z,19.42
2023-01-29T05:41:44.797Z,19.25
2023-01-29T05:44:11.652Z,19.80
2023-01-29T05:46:38.926Z,19.92
2023-01-29T05:49:06.371Z,18.92
2023-01-29T05:51:33.118Z,18.30
2023-01-29T05:53:59.879Z,18.20
2023-01-29T05:56:26.670Z,19.40
2023-01-29T05:58:53.428Z,20.02
2023-01-29T06:01:23.679Z,19.42
2023-01-29T06:03:50.602Z,18.23
2023-01-29T06:06:17.979Z,19.20
2023-01-29T06:08:44.748Z,18.70
2023-01-29T06:11:13.820Z,19.08
2023-01-29T06:13:40.995Z,18.52
2023-01-29T06:16:08.912Z,19.10
2023-01-29T06:18:36.527Z,19.67
2023-01-29T06:21:05.295Z,19.08
2023-01-29T06:23:32.403Z,19.03
2023-01-29T06:26:04.142Z,19.63
2023-01-29T06:28:31.597Z,19.65
2023-01-29T06:31:12.012Z,18.92
2023-01-29T06:33:47.152Z,19.17
2023-01-29T06:36:13.897Z,19.27
2023-01-29T06:38:40.836Z,18.50
2023-01-29T06:41:12.475Z,18.63
2023-01-29T06:43:39.770Z,18.77
2023-01-29T06:46:08.287Z,17.90
2023-01-29T06:48:35.632Z,18.55
2023-01-29T06:51:04.300Z,18.40
2023-01-29T06:53:31.773Z,17.40
2023-01-29T06:55:58.596Z,17.25
2023-01-29T06:58:25.823Z,17.45
2023-01-29T07:00:52.738Z,17.73
2023-01-29T07:03:19.518Z,17.70
2023-01-29T07:05:52.993Z,17.50
2023-01-29T07:08:22.600Z,18.00
2023-01-29T07:10:50.451Z,17.25
2023-01-29T07:13:17.358Z,17.75
2023-01-29T07:15:44.649Z,16.83
2023-01-29T07:18:14.277Z,17.63
2023-01-29T07:20:41.980Z,17.52
2023-01-29T07:23:15.347Z,17.17
2023-01-29T07:25:42.150Z,16.95
2023-01-29T07:28:09.121Z,16.52
2023-01-29T07:30:36.408Z,16.48
2023-01-29T07:33:07.416Z,16.55
2023-01-29T07:35:39.825Z,16.95
2023-01-29T07:38:07.677Z,16.13
2023-01-29T07:40:34.450Z,17.00
2023-01-29T07:43:05.327Z,17.73
2023-01-29T07:45:38.366Z,16.97
2023-01-29T07:48:06.313Z,16.80
2023-01-29T07:50:34.805Z,17.42
2023-01-29T07:53:01.988Z,17.35
2023-01-29T07:55:28.766Z,17.45
2023-01-29T07:58:01.074Z,18.00
2023-01-29T08:00:28.989Z,17.33
2023-01-29T08:03:05.543Z,17.15
2023-01-29T08:05:32.777Z,17.50
2023-01-29T08:08:06.547Z,17.10
2023-01-29T08:10:34.908Z,16.85
2023-01-29T08:13:03.169Z,17.10
2023-01-29T08:15:30.338Z,17.40
2023-01-29T08:20:44.736Z,17.10
2023-01-29T08:23:15.076Z,17.30
2023-01-29T08:25:42.137Z,16.50
2023-01-29T08:28:09.795Z,17.85
2023-01-29T08:30:37.875Z,17.42
2023-01-29T08:33:05.111Z,16.85
2023-01-29T08:35:32.040Z,16.85
2023-01-29T08:38:00.744Z,17.63
2023-01-29T08:40:36.738Z,16.58
2023-01-29T08:43:09.205Z,16.15
2023-01-29T08:45:39.853Z,17.23
2023-01-29T08:48:07.083Z,16.88
2023-01-29T08:50:35.073Z,16.80
2023-01-29T08:53:04.403Z,17.27
2023-01-29T08:55:31.129Z,17.17
2023-01-29T08:57:57.864Z,16.98
2023-01-29T09:00:24.938Z,18.13
2023-01-29T09:02:51.674Z,17.35
2023-01-29T09:05:18.964Z,18.38
2023-01-29T09:07:46.001Z,17.40
2023-01-29T09:10:13.379Z,16.98
2023-01-29T09:12:40.349Z,16.95
2023-01-29T09:15:07.736Z,17.30
2023-01-29T09:17:34.682Z,17.03
2023-01-29T09:20:01.422Z,17.38
2023-01-29T09:22:30.015Z,17.50
2023-01-29T09:24:56.788Z,17.70
2023-01-29T09:27:23.688Z,17.30
2023-01-29T09:29:50.512Z,17.50
2023-01-29T09:32:37.622Z,17.70
2023-01-29T09:35:04.633Z,16.77
2023-01-29T09:37:32.526Z,16.92
2023-01-29T09:39:59.378Z,16.73
2023-01-29T09:42:39.199Z,16.40
2023-01-29T09:45:09.743Z,17.10
2023-01-29T09:47:37.288Z,16.98
2023-01-29T09:50:13.625Z,16.45
2023-01-29T09:52:54.247Z,16.73
2023-01-29T09:55:32.492Z,16.48
2023-01-29T09:58:18.466Z,16.55
2023-01-29T10:01:08.838Z,16.80
2023-01-29T10:03:51.136Z,16.20
2023-01-29T10:06:48.209Z,16.95
2023-01-29T10:09:27.058Z,17.98
2023-01-29T10:12:32.927Z,16.77
2023-01-29T10:15:18.078Z,16.10
2023-01-29T10:17:53.104Z,16.73
2023-01-29T10:20:52.872Z,17.33
2023-01-29T10:23:30.249Z,17.13
2023-01-29T10:25:57.124Z,16.90
2023-01-29T10:28:45.885Z,17.05
2023-01-29T10:31:33.223Z,17.73
2023-01-29T10:34:07.294Z,17.27
2023-01-29T10:36:47.936Z,18.88
2023-01-29T10:39:18.870Z,17.90
2023-01-29T10:41:56.239Z,18.45
2023-01-29T10:45:07.432Z,17.98
2023-01-29T10:48:04.374Z,18.58
2023-01-29T10:50:47.156Z,19.38
2023-01-29T10:53:33.381Z,18.90
2023-01-29T10:56:32.718Z,19.77
2023-01-29T10:59:05.391Z,20.13
2023-01-29T11:01:32.232Z,20.20
2023-01-29T11:04:03.164Z,20.30
2023-01-29T11:06:32.736Z,20.48
2023-01-29T11:09:38.636Z,19.88
2023-01-29T11:12:05.601Z,20.27
2023-01-29T11:15:16.084Z,19.98
2023-01-29T11:18:05.761Z,19.92
2023-01-29T11:20:33.948Z,20.35
2023-01-29T11:23:00.765Z,20.40
2023-01-29T11:25:29.813Z,20.35
2023-01-29T11:28:00.561Z,20.25
2023-01-29T11:30:39.182Z,20.00
2023-01-29T11:33:23.787Z,19.95
2023-01-29T11:35:52.630Z,19.52
2023-01-29T11:38:22.714Z,19.88
2023-01-29T11:40:49.981Z,19.52
2023-01-29T11:43:28.111Z,19.88
2023-01-29T11:45:58.512Z,19.92
2023-01-29T11:48:51.443Z,20.23
2023-01-29T11:51:28.299Z,19.88
2023-01-29T11:54:01.949Z,19.55
2023-01-29T11:56:39.809Z,20.35
2023-01-29T11:59:15.784Z,20.85
2023-01-29T12:01:42.761Z,20.27
2023-01-29T12:04:27.849Z,20.70
2023-01-29T12:06:54.948Z,19.67
2023-01-29T12:09:27.135Z,20.63
2023-01-29T12:11:53.987Z,20.20
2023-01-29T12:14:34.019Z,21.48
2023-01-29T12:17:16.826Z,20.73
2023-01-29T12:19:50.147Z,20.23
2023-01-29T12:22:28.902Z,21.48
2023-01-29T12:25:20.258Z,20.88
2023-01-29T12:27:59.417Z,20.77
2023-01-29T12:30:33.837Z,20.67
2023-01-29T12:33:29.271Z,20.67
2023-01-29T12:36:31.491Z,20.85
2023-01-29T12:38:59.298Z,21.17
2023-01-29T12:41:37.999Z,21.25
2023-01-29T12:44:37.455Z,21.25
2023-01-29T12:47:07.369Z,21.42
2023-01-29T12:49:37.234Z,21.08
2023-01-29T12:52:07.020Z,21.60
2023-01-29T12:54:47.876Z,22.10
2023-01-29T12:57:39.740Z,21.83
2023-01-29T13:00:13.436Z,21.17
2023-01-29T13:03:20.345Z,21.52
2023-01-29T13:06:21.653Z,21.80
2023-01-29T13:08:58.521Z,22.17
2023-01-29T13:11:59.616Z,21.77
2023-01-29T13:14:40.727Z,21.45
2023-01-29T13:17:20.007Z,21.85
2023-01-29T13:19:51.230Z,22.10
2023-01-29T13:22:31.922Z,21.97
2023-01-29T13:25:05.206Z,21.15
2023-01-29T13:27:35.237Z,21.30
2023-01-29T13:30:02.354Z,20.85
2023-01-29T13:32:31.522Z,21.52
2023-01-29T13:35:12.109Z,20.23
2023-01-29T13:37:57.095Z,20.73
2023-01-29T13:40:27.592Z,20.52
2023-01-29T13:42:55.539Z,19.10
2023-01-29T13:45:49.246Z,19.40
2023-01-29T13:48:29.521Z,19.15
2023-01-29T13:51:00.555Z,19.67
2023-01-29T13:53:33.599Z,19.35
2023-01-29T13:56:34.131Z,20.27
2023-01-29T13:59:06.407Z,19.35
2023-01-29T14:01:48.100Z,18.70
2023-01-29T14:04:28.234Z,18.90
2023-01-29T14:06:57.045Z,19.27
2023-01-29T14:09:38.921Z,19.92
2023-01-29T14:12:25.803Z,20.05
2023-01-29T14:14:55.336Z,20.25
2023-01-29T14:17:22.856Z,19.55
2023-01-29T14:19:51.547Z,19.67
2023-01-29T14:22:22.372Z,20.30
2023-01-29T14:24:53.856Z,19.85
2023-01-29T14:27:25.337Z,19.58
2023-01-29T14:29:58.587Z,19.40
2023-01-29T14:32:26.210Z,20.40
2023-01-29T14:35:01.252Z,19.17
2023-01-29T14:37:40.692Z,19.20
2023-01-29T14:40:15.869Z,19.85
2023-01-29T14:43:01.989Z,19.90
2023-01-29T14:45:33.139Z,19.50
2023-01-29T14:48:07.064Z,19.92
2023-01-29T14:50:34.752Z,19.88
2023-01-29T14:53:40.239Z,19.92
2023-01-29T14:56:17.013Z,19.70
2023-01-29T14:58:55.325Z,20.08
2023-01-29T15:01:28.933Z,19.17
2023-01-29T15:04:05.413Z,18.98
2023-01-29T15:06:46.396Z,19.55
2023-01-29T15:09:36.672Z,19.75
2023-01-29T15:12:26.659Z,19.92
2023-01-29T15:15:18.297Z,19.33
2023-01-29T15:17:57.263Z,19.75
2023-01-29T15:20:34.738Z,18.60
2023-01-29T15:23:03.480Z,18.17
2023-01-29T15:25:37.696Z,18.33
2023-01-29T15:28:08.589Z,18.87
2023-01-29T15:30:36.281Z,19.38
2023-01-29T15:33:04.091Z,19.10
2023-01-29T15:35:39.570Z,18.55
2023-01-29T15:38:07.760Z,18.30
2023-01-29T15:40:34.970Z,18.40
2023-01-29T15:43:01.771Z,18.58
2023-01-29T15:45:33.486Z,18.58
2023-01-29T15:48:07.580Z,17.85
2023-01-29T15:50:39.226Z,18.45
2023-01-29T15:53:09.772Z,18.52
2023-01-29T15:55:36.690Z,18.85
2023-01-29T15:58:04.414Z,17.42
2023-01-29T16:00:31.473Z,18.23
2023-01-29T16:03:00.691Z,17.17
2023-01-29T16:05:33.033Z,17.50
2023-01-29T16:08:00.745Z,17.27
2023-01-29T16:10:31.056Z,17.70
2023-01-29T16:12:58.934Z,18.27
2023-01-29T16:15:39.252Z,19.02
2023-01-29T16:18:22.265Z,18.93
2023-01-29T16:20:54.484Z,19.05
2023-01-29T16:23:28.112Z,20.13
2023-01-29T16:26:01.266Z,19.50
2023-01-29T16:28:28.354Z,20.15
2023-01-29T16:31:03.868Z,20.13
2023-01-29T16:33:37.369Z,19.85
2023-01-29T16:36:16.699Z,20.05
2023-01-29T16:38:51.309Z,20.52
2023-01-29T16:41:23.902Z,20.23
2023-01-29T16:43:52.347Z,20.25
2023-01-29T16:46:31.830Z,20.77
2023-01-29T16:48:59.045Z,20.33
2023-01-29T16:51:31.782Z,20.77
2023-01-29T16:54:13.543Z,21.33
2023-01-29T16:56:40.399Z,21.05
2023-01-29T16:59:12.968Z,20.77
2023-01-29T17:01:39.740Z,20.83
2023-01-29T17:04:17.412Z,20.45
2023-01-29T17:06:50.119Z,20.88
2023-01-29T17:09:26.280Z,19.85
2023-01-29T17:11:57.263Z,19.75
2023-01-29T17:14:26.017Z,20.30
2023-01-29T17:17:04.578Z,20.88
2023-01-29T17:19:31.585Z,21.23
2023-01-29T17:21:59.095Z,20.77
2023-01-29T17:24:26.548Z,20.73
2023-01-29T17:26:54.119Z,21.13
2023-01-29T17:29:30.524Z,20.88
2023-01-29T17:31:59.930Z,20.95
2023-01-29T17:34:26.912Z,20.13
2023-01-29T17:36:53.844Z,21.23
2023-01-29T17:39:22.820Z,20.92
2023-01-29T17:41:58.118Z,21.02
2023-01-29T17:44:28.252Z,21.27
2023-01-29T17:46:55.153Z,20.77
2023-01-29T17:49:28.584Z,21.17
2023-01-29T17:51:56.718Z,20.65
2023-01-29T17:54:24.141Z,21.55
2023-01-29T17:56:51.578Z,21.63
2023-01-29T17:59:20.750Z,21.33
2023-01-29T18:01:48.378Z,21.45
2023-01-29T18:04:15.324Z,21.23
2023-01-29T18:06:43.165Z,21.42
2023-01-29T18:09:14.858Z,21.25
2023-01-29T18:11:42.909Z,20.67
2023-01-29T18:14:14.138Z,21.27
2023-01-29T18:16:43.480Z,21.37
2023-01-29T18:19:30.995Z,21.23
2023-01-29T18:21:57.871Z,21.55
2023-01-29T18:24:26.546Z,20.77
2023-01-29T18:26:53.434Z,21.15
2023-01-29T18:29:20.320Z,21.88
2023-01-29T18:31:51.416Z,20.38
2023-01-29T18:34:18.279Z,21.30
2023-01-29T18:36:47.600Z,21.23
2023-01-29T18:39:15.358Z,21.02
2023-01-29T18:41:42.438Z,20.30
2023-01-29T18:44:10.664Z,21.42
2023-01-29T18:46:37.417Z,20.95
2023-01-29T18:49:05.198Z,21.17
2023-01-29T18:51:31.998Z,20.95
2023-01-29T18:53:58.743Z,21.03
2023-01-29T18:56:25.678Z,21.30
2023-01-29T18:58:55.818Z,21.73
2023-01-29T19:01:23.528Z,21.48
2023-01-29T19:03:50.327Z,21.02
2023-01-29T19:06:17.112Z,20.77
2023-01-29T19:08:44.033Z,20.70
2023-01-29T19:11:12.476Z,21.40
2023-01-29T19:13:40.544Z,20.67
2023-01-29T19:16:09.274Z,22.10
2023-01-29T19:18:36.953Z,21.33
2023-01-29T19:21:14.562Z,21.00
2023-01-29T19:23:43.025Z,21.92
2023-01-29T19:26:10.415Z,21.40
2023-01-29T19:28:37.272Z,21.40
2023-01-29T19:31:04.155Z,21.50
2023-01-29T19:33:30.958Z,22.23
2023-01-29T19:35:59.164Z,21.93
2023-01-29T19:38:26.560Z,21.30
2023-01-29T19:40:55.116Z,21.98
2023-01-29T19:43:22.003Z,22.10
2023-01-29T19:45:50.900Z,21.73
2023-01-29T19:48:21.656Z,22.00
2023-01-29T19:50:53.463Z,21.85
2023-01-29T19:53:20.623Z,21.95
2023-01-29T19:55:48.198Z,22.00
2023-01-29T19:58:15.223Z,22.48
2023-01-29T20:00:42.050Z,22.13
2023-01-29T20:03:08.943Z,22.85
2023-01-29T20:05:37.468Z,23.08
2023-01-29T20:08:04.360Z,22.85
2023-01-29T20:10:31.120Z,22.87
2023-01-29T20:12:58.045Z,22.52
2023-01-29T20:15:24.916Z,22.80
2023-01-29T20:17:51.674Z,22.70
2023-01-29T20:20:18.757Z,22.65
2023-01-29T20:22:46.284Z,23.75
2023-01-29T20:25:14.189Z,23.05
2023-01-29T20:27:41.242Z,22.58
2023-01-29T20:30:08.997Z,23.30
2023-01-29T20:32:35.823Z,23.47
2023-01-29T20:35:03.364Z,24.20
2023-01-29T20:37:30.103Z,23.40
2023-01-29T20:39:56.869Z,23.65
2023-01-29T20:42:23.638Z,23.27
2023-01-29T20:44:50.403Z,23.98
2023-01-29T20:47:17.186Z,23.02
2023-01-29T20:49:44.009Z,23.85
2023-01-29T20:52:11.332Z,23.25
2023-01-29T20:54:38.072Z,23.30
2023-01-29T20:57:05.017Z,23.33
2023-01-29T20:59:31.876Z,24.50
2023-01-29T21:01:58.683Z,23.42
2023-01-29T21:04:25.647Z,23.67
2023-01-29T21:06:52.466Z,24.35
2023-01-29T21:09:20.397Z,24.88
2023-01-29T21:11:47.683Z,23.25
2023-01-29T21:14:14.631Z,24.55
2023-01-29T21:16:41.528Z,23.42
2023-01-29T21:19:08.945Z,24.67
2023-01-29T21:21:35.702Z,25.00
2023-01-29T21:24:02.476Z,24.10
2023-01-29T21:26:29.314Z,24.25
2023-01-29T21:28:56.118Z,24.65
2023-01-29T21:31:23.116Z,24.58
2023-01-29T21:33:50.041Z,24.75
2023-01-29T21:36:16.919Z,24.38
2023-01-29T21:38:43.747Z,24.25
2023-01-29T21:41:10.734Z,24.52
2023-01-29T21:43:38.146Z,24.42
2023-01-29T21:46:13.460Z,24.95
2023-01-29T21:48:40.844Z,24.50
2023-01-29T21:51:08.028Z,25.20
2023-01-29T21:53:34.983Z,25.03
2023-01-29T21:56:03.862Z,26.05
2023-01-29T21:58:31.040Z,25.38
2023-01-29T22:01:36.000Z,25.30
2023-01-29T22:03:47.062Z,26.02
2023-01-29T22:06:14.517Z,26.15
2023-01-29T22:08:41.323Z,27.25
2023-01-29T22:11:08.321Z,26.02
2023-01-29T22:13:35.301Z,26.97
2023-01-29T22:16:02.151Z,26.52
2023-01-29T22:18:28.924Z,26.42
2023-01-29T22:20:56.581Z,26.45
2023-01-29T22:23:23.986Z,26.85
2023-01-29T22:25:50.785Z,27.50
2023-01-29T22:28:18.424Z,26.98
2023-01-29T22:30:45.514Z,25.90
2023-01-29T22:33:12.617Z,27.83
2023-01-29T22:35:39.494Z,26.80
2023-01-29T22:38:06.562Z,25.70
2023-01-29T22:40:33.370Z,26.40
2023-01-29T22:43:00.134Z,26.27
2023-01-29T22:45:27.310Z,27.00
2023-01-29T22:47:54.062Z,27.00
2023-01-29T22:50:21.014Z,26.38
2023-01-29T22:52:53.930Z,26.65
2023-01-29T22:55:20.989Z,26.52
2023-01-29T22:57:53.334Z,27.60
2023-01-29T23:00:20.568Z,27.17
2023-01-29T23:02:47.841Z,26.45
2023-01-29T23:05:14.759Z,26.70
2023-01-29T23:07:41.590Z,26.15
2023-01-29T23:10:10.137Z,26.35
2023-01-29T23:12:37.555Z,28.00
2023-01-29T23:15:05.144Z,26.05
2023-01-29T23:17:31.953Z,25.33
2023-01-29T23:19:58.774Z,26.25
2023-01-29T23:22:25.571Z,25.98
2023-01-29T23:24:52.804Z,25.05
2023-01-29T23:27:20.094Z,25.00
2023-01-29T23:29:48.402Z,24.70
2023-01-29T23:32:19.599Z,24.13
2023-01-29T23:34:46.593Z,24.30
2023-01-29T23:37:13.917Z,24.63
2023-01-29T23:39:40.668Z,23.67
2023-01-29T23:42:07.442Z,23.77
2023-01-29T23:44:34.191Z,23.60
2023-01-29T23:47:01.325Z,23.00
2023-01-29T23:49:28.098Z,24.35
2023-01-29T23:51:54.900Z,22.13
2023-01-29T23:54:21.658Z,22.27
2023-01-29T23:56:48.632Z,21.63
2023-01-29T23:59:16.036Z,21.63
